sensor_id;sensor_type;location;lat;lon;timestamp;temperature;humidity
15452;DHT22;7827;53.594;9.938;2022-08-01T00:00:09;19.30;99.90
15452;DHT22;7827;53.594;9.938;2022-08-01T00:02:39;19.30;99.90
15452;DHT22;7827;53.594;9.938;2022-08-01T00:05:08;19.20;99.90
15452;DHT22;7827;53.594;9.938;2022-08-01T00:07:38;19.30;99.90
15452;DHT22;7827;53.594;9.938;2022-08-01T00:10:08;19.30;99.90
15452;DHT22;7827;53.594;9.938;2022-08-01T00:12:40;19.20;99.90
15452;DHT22;7827;53.594;9.938;2022-08-01T00:15:11;19.20;99.90
15452;DHT22;7827;53.594;9.938;2022-08-01T00:17:43;19.20;99.90
15452;DHT22;7827;53.594;9.938;2022-08-01T00:20:13;19.20;99.90
15452;DHT22;7827;53.594;9.938;2022-08-01T00:22:43;19.20;99.90
15452;DHT22;7827;53.594;9.938;2022-08-01T00:25:11;19.20;99.90
15452;DHT22;7827;53.594;9.938;2022-08-01T00:27:41;19.20;99.90
15452;DHT22;7827;53.594;9.938;2022-08-01T00:30:09;19.30;99.90
15452;DHT22;7827;53.594;9.938;2022-08-01T00:32:41;19.30;99.90
15452;DHT22;7827;53.594;9.938;2022-08-01T00:35:10;19.30;99.90
15452;DHT22;7827;53.594;9.938;2022-08-01T00:37:40;19.20;99.90
15452;DHT22;7827;53.594;9.938;2022-08-01T00:40:09;19.30;99.90
15452;DHT22;7827;53.594;9.938;2022-08-01T00:42:38;19.30;99.90
15452;DHT22;7827;53.594;9.938;2022-08-01T00:45:11;19.20;99.90
15452;DHT22;7827;53.594;9.938;2022-08-01T00:47:40;19.20;99.90
15452;DHT22;7827;53.594;9.938;2022-08-01T00:50:09;19.20;99.90
15452;DHT22;7827;53.594;9.938;2022-08-01T00:52:39;19.20;99.90
15452;DHT22;7827;53.594;9.938;2022-08-01T00:55:16;19.20;99.90
15452;DHT22;7827;53.594;9.938;2022-08-01T00:57:46;19.20;99.90
15452;DHT22;7827;53.594;9.938;2022-08-01T01:00:33;19.20;99.90
15452;DHT22;7827;53.594;9.938;2022-08-01T01:03:21;19.20;99.90
15452;DHT22;7827;53.594;9.938;2022-08-01T01:06:19;19.20;99.90
15452;DHT22;7827;53.594;9.938;2022-08-01T01:09:02;19.20;99.90
15452;DHT22;7827;53.594;9.938;2022-08-01T01:11:46;19.20;99.90
15452;DHT22;7827;53.594;9.938;2022-08-01T01:14:26;19.20;99.90
15452;DHT22;7827;53.594;9.938;2022-08-01T01:17:00;19.10;99.90
15452;DHT22;7827;53.594;9.938;2022-08-01T01:19:33;19.20;99.90
15452;DHT22;7827;53.594;9.938;2022-08-01T01:22:22;19.20;99.90
15452;DHT22;7827;53.594;9.938;2022-08-01T01:25:08;19.20;99.90
15452;DHT22;7827;53.594;9.938;2022-08-01T01:27:51;19.10;99.90
15452;DHT22;7827;53.594;9.938;2022-08-01T01:30:31;19.10;99.90
15452;DHT22;7827;53.594;9.938;2022-08-01T01:33:03;19.10;99.90
15452;DHT22;7827;53.594;9.938;2022-08-01T01:35:38;19.10;99.90
15452;DHT22;7827;53.594;9.938;2022-08-01T01:38:15;19.10;99.90
15452;DHT22;7827;53.594;9.938;2022-08-01T01:40:47;19.00;99.90
15452;DHT22;7827;53.594;9.938;2022-08-01T01:43:19;19.10;99.90
15452;DHT22;7827;53.594;9.938;2022-08-01T01:45:56;19.20;99.90
15452;DHT22;7827;53.594;9.938;2022-08-01T01:48:25;19.10;99.90
15452;DHT22;7827;53.594;9.938;2022-08-01T01:50:56;19.10;99.90
15452;DHT22;7827;53.594;9.938;2022-08-01T01:53:28;19.00;99.90
15452;DHT22;7827;53.594;9.938;2022-08-01T01:55:58;19.00;99.90
15452;DHT22;7827;53.594;9.938;2022-08-01T01:58:31;19.00;99.90
15452;DHT22;7827;53.594;9.938;2022-08-01T02:01:03;19.00;99.90
15452;DHT22;7827;53.594;9.938;2022-08-01T02:03:41;19.10;99.90
15452;DHT22;7827;53.594;9.938;2022-08-01T02:06:13;19.00;99.90
15452;DHT22;7827;53.594;9.938;2022-08-01T02:08:44;19.00;99.90
15452;DHT22;7827;53.594;9.938;2022-08-01T02:11:14;19.00;99.90
15452;DHT22;7827;53.594;9.938;2022-08-01T02:13:50;19.00;99.90
15452;DHT22;7827;53.594;9.938;2022-08-01T02:16:25;19.00;99.90
15452;DHT22;7827;53.594;9.938;2022-08-01T02:18:55;19.00;99.90
15452;DHT22;7827;53.594;9.938;2022-08-01T02:21:28;19.00;99.90
15452;DHT22;7827;53.594;9.938;2022-08-01T02:24:07;19.10;99.90
15452;DHT22;7827;53.594;9.938;2022-08-01T02:26:44;19.00;99.90
15452;DHT22;7827;53.594;9.938;2022-08-01T02:29:21;19.00;99.90
15452;DHT22;7827;53.594;9.938;2022-08-01T02:31:55;19.00;99.90
15452;DHT22;7827;53.594;9.938;2022-08-01T02:34:25;18.90;99.90
15452;DHT22;7827;53.594;9.938;2022-08-01T02:37:00;18.90;99.90
15452;DHT22;7827;53.594;9.938;2022-08-01T02:39:30;18.90;99.90
15452;DHT22;7827;53.594;9.938;2022-08-01T02:42:04;19.00;99.90
15452;DHT22;7827;53.594;9.938;2022-08-01T02:44:38;18.90;99.90
15452;DHT22;7827;53.594;9.938;2022-08-01T02:47:10;18.90;99.90
15452;DHT22;7827;53.594;9.938;2022-08-01T02:49:42;18.90;99.90
15452;DHT22;7827;53.594;9.938;2022-08-01T02:52:21;18.90;99.90
15452;DHT22;7827;53.594;9.938;2022-08-01T02:54:55;18.90;99.90
15452;DHT22;7827;53.594;9.938;2022-08-01T02:57:25;18.90;99.90
15452;DHT22;7827;53.594;9.938;2022-08-01T03:00:16;18.90;99.90
15452;DHT22;7827;53.594;9.938;2022-08-01T03:02:48;18.90;99.90
15452;DHT22;7827;53.594;9.938;2022-08-01T03:05:22;18.90;99.90
15452;DHT22;7827;53.594;9.938;2022-08-01T03:07:54;18.90;99.90
15452;DHT22;7827;53.594;9.938;2022-08-01T03:10:30;18.80;99.90
15452;DHT22;7827;53.594;9.938;2022-08-01T03:13:00;18.70;99.90
15452;DHT22;7827;53.594;9.938;2022-08-01T03:15:31;18.70;99.90
15452;DHT22;7827;53.594;9.938;2022-08-01T03:18:07;18.70;99.90
15452;DHT22;7827;53.594;9.938;2022-08-01T03:20:37;18.70;99.90
15452;DHT22;7827;53.594;9.938;2022-08-01T03:23:07;18.70;99.90
15452;DHT22;7827;53.594;9.938;2022-08-01T03:25:39;18.70;99.90
15452;DHT22;7827;53.594;9.938;2022-08-01T03:28:12;18.70;99.90
15452;DHT22;7827;53.594;9.938;2022-08-01T03:30:42;18.80;99.90
15452;DHT22;7827;53.594;9.938;2022-08-01T03:33:13;18.90;99.90
15452;DHT22;7827;53.594;9.938;2022-08-01T03:35:45;18.90;99.90
15452;DHT22;7827;53.594;9.938;2022-08-01T03:38:18;18.90;99.90
15452;DHT22;7827;53.594;9.938;2022-08-01T03:40:52;18.80;99.90
15452;DHT22;7827;53.594;9.938;2022-08-01T03:43:28;18.90;99.90
15452;DHT22;7827;53.594;9.938;2022-08-01T03:46:05;18.90;99.90
15452;DHT22;7827;53.594;9.938;2022-08-01T03:48:40;18.80;99.90
15452;DHT22;7827;53.594;9.938;2022-08-01T03:51:12;18.70;99.90
15452;DHT22;7827;53.594;9.938;2022-08-01T03:53:42;18.70;99.90
15452;DHT22;7827;53.594;9.938;2022-08-01T03:56:12;18.80;99.90
15452;DHT22;7827;53.594;9.938;2022-08-01T03:58:46;18.80;99.90
15452;DHT22;7827;53.594;9.938;2022-08-01T04:01:17;18.80;99.90
15452;DHT22;7827;53.594;9.938;2022-08-01T04:03:48;18.80;99.90
15452;DHT22;7827;53.594;9.938;2022-08-01T04:06:16;18.90;99.90
15452;DHT22;7827;53.594;9.938;2022-08-01T04:08:47;18.90;99.90
15452;DHT22;7827;53.594;9.938;2022-08-01T04:11:24;19.00;99.90
15452;DHT22;7827;53.594;9.938;2022-08-01T04:13:54;19.00;99.90
15452;DHT22;7827;53.594;9.938;2022-08-01T04:16:24;19.10;99.90
15452;DHT22;7827;53.594;9.938;2022-08-01T04:18:54;19.10;99.90
15452;DHT22;7827;53.594;9.938;2022-08-01T04:21:25;19.20;99.90
15452;DHT22;7827;53.594;9.938;2022-08-01T04:23:59;19.30;99.90
15452;DHT22;7827;53.594;9.938;2022-08-01T04:26:32;19.30;99.90
15452;DHT22;7827;53.594;9.938;2022-08-01T04:29:05;19.30;99.90
15452;DHT22;7827;53.594;9.938;2022-08-01T04:31:36;19.40;99.90
15452;DHT22;7827;53.594;9.938;2022-08-01T04:34:09;19.50;99.90
15452;DHT22;7827;53.594;9.938;2022-08-01T04:36:41;19.50;99.90
15452;DHT22;7827;53.594;9.938;2022-08-01T04:39:12;19.50;99.90
15452;DHT22;7827;53.594;9.938;2022-08-01T04:41:45;19.50;99.90
15452;DHT22;7827;53.594;9.938;2022-08-01T04:44:14;19.50;99.90
15452;DHT22;7827;53.594;9.938;2022-08-01T04:46:43;19.40;99.90
15452;DHT22;7827;53.594;9.938;2022-08-01T04:49:16;19.60;99.90
15452;DHT22;7827;53.594;9.938;2022-08-01T04:51:51;19.50;99.90
15452;DHT22;7827;53.594;9.938;2022-08-01T04:54:24;19.50;99.90
15452;DHT22;7827;53.594;9.938;2022-08-01T04:56:52;19.50;99.90
15452;DHT22;7827;53.594;9.938;2022-08-01T04:59:22;19.40;99.90
15452;DHT22;7827;53.594;9.938;2022-08-01T05:02:10;19.40;99.90
15452;DHT22;7827;53.594;9.938;2022-08-01T05:04:41;19.30;99.90
15452;DHT22;7827;53.594;9.938;2022-08-01T05:07:11;19.30;99.90
15452;DHT22;7827;53.594;9.938;2022-08-01T05:09:42;19.30;99.90
15452;DHT22;7827;53.594;9.938;2022-08-01T05:12:13;19.10;99.90
15452;DHT22;7827;53.594;9.938;2022-08-01T05:14:42;18.90;99.90
15452;DHT22;7827;53.594;9.938;2022-08-01T05:17:11;18.90;99.90
15452;DHT22;7827;53.594;9.938;2022-08-01T05:19:42;18.80;99.90
15452;DHT22;7827;53.594;9.938;2022-08-01T05:22:11;18.70;99.90
15452;DHT22;7827;53.594;9.938;2022-08-01T05:24:40;18.60;99.90
15452;DHT22;7827;53.594;9.938;2022-08-01T05:27:11;18.60;99.90
15452;DHT22;7827;53.594;9.938;2022-08-01T05:29:42;18.60;99.90
15452;DHT22;7827;53.594;9.938;2022-08-01T05:32:10;18.60;99.90
15452;DHT22;7827;53.594;9.938;2022-08-01T05:34:39;18.70;99.90
15452;DHT22;7827;53.594;9.938;2022-08-01T05:37:08;18.80;99.90
15452;DHT22;7827;53.594;9.938;2022-08-01T05:39:37;18.80;99.90
15452;DHT22;7827;53.594;9.938;2022-08-01T05:42:05;18.70;99.90
15452;DHT22;7827;53.594;9.938;2022-08-01T05:44:34;18.60;99.90
15452;DHT22;7827;53.594;9.938;2022-08-01T05:47:03;18.60;99.90
15452;DHT22;7827;53.594;9.938;2022-08-01T05:49:31;18.60;99.90
15452;DHT22;7827;53.594;9.938;2022-08-01T05:52:00;18.60;99.90
15452;DHT22;7827;53.594;9.938;2022-08-01T05:54:31;18.70;99.90
15452;DHT22;7827;53.594;9.938;2022-08-01T05:56:59;18.70;99.90
15452;DHT22;7827;53.594;9.938;2022-08-01T05:59:28;18.70;99.90
15452;DHT22;7827;53.594;9.938;2022-08-01T06:01:57;18.80;99.90
15452;DHT22;7827;53.594;9.938;2022-08-01T06:04:26;18.70;99.90
15452;DHT22;7827;53.594;9.938;2022-08-01T06:06:54;18.70;99.90
15452;DHT22;7827;53.594;9.938;2022-08-01T06:09:22;18.60;99.90
15452;DHT22;7827;53.594;9.938;2022-08-01T06:11:52;18.70;99.90
15452;DHT22;7827;53.594;9.938;2022-08-01T06:14:20;18.70;99.90
15452;DHT22;7827;53.594;9.938;2022-08-01T06:16:48;18.60;99.90
15452;DHT22;7827;53.594;9.938;2022-08-01T06:19:17;18.60;99.90
15452;DHT22;7827;53.594;9.938;2022-08-01T06:21:45;18.50;99.90
15452;DHT22;7827;53.594;9.938;2022-08-01T06:24:13;18.60;99.90
15452;DHT22;7827;53.594;9.938;2022-08-01T06:26:42;18.70;99.90
15452;DHT22;7827;53.594;9.938;2022-08-01T06:29:12;18.60;99.90
15452;DHT22;7827;53.594;9.938;2022-08-01T06:31:41;18.50;99.90
15452;DHT22;7827;53.594;9.938;2022-08-01T06:34:09;18.50;99.90
15452;DHT22;7827;53.594;9.938;2022-08-01T06:36:37;18.60;99.90
15452;DHT22;7827;53.594;9.938;2022-08-01T06:39:06;18.60;99.90
15452;DHT22;7827;53.594;9.938;2022-08-01T06:41:34;18.70;99.90
15452;DHT22;7827;53.594;9.938;2022-08-01T06:44:03;18.80;99.90
15452;DHT22;7827;53.594;9.938;2022-08-01T06:46:34;18.80;99.90
15452;DHT22;7827;53.594;9.938;2022-08-01T06:49:02;18.60;99.90
15452;DHT22;7827;53.594;9.938;2022-08-01T06:51:31;18.70;99.90
15452;DHT22;7827;53.594;9.938;2022-08-01T06:53:59;18.80;99.90
15452;DHT22;7827;53.594;9.938;2022-08-01T06:56:27;18.70;99.90
15452;DHT22;7827;53.594;9.938;2022-08-01T06:58:56;18.80;99.90
15452;DHT22;7827;53.594;9.938;2022-08-01T07:01:27;18.80;99.90
15452;DHT22;7827;53.594;9.938;2022-08-01T07:04:02;18.70;99.90
15452;DHT22;7827;53.594;9.938;2022-08-01T07:06:31;18.70;99.90
15452;DHT22;7827;53.594;9.938;2022-08-01T07:08:59;18.70;99.90
15452;DHT22;7827;53.594;9.938;2022-08-01T07:11:38;18.70;99.90
15452;DHT22;7827;53.594;9.938;2022-08-01T07:14:06;18.60;99.90
15452;DHT22;7827;53.594;9.938;2022-08-01T07:16:35;18.60;99.90
15452;DHT22;7827;53.594;9.938;2022-08-01T07:19:04;18.60;99.90
15452;DHT22;7827;53.594;9.938;2022-08-01T07:21:33;18.60;99.90
15452;DHT22;7827;53.594;9.938;2022-08-01T07:24:07;18.50;99.90
15452;DHT22;7827;53.594;9.938;2022-08-01T07:26:41;18.60;99.90
15452;DHT22;7827;53.594;9.938;2022-08-01T07:29:22;18.70;99.90
15452;DHT22;7827;53.594;9.938;2022-08-01T07:31:50;18.60;99.90
15452;DHT22;7827;53.594;9.938;2022-08-01T07:34:21;18.60;99.90
15452;DHT22;7827;53.594;9.938;2022-08-01T07:36:51;18.60;99.90
15452;DHT22;7827;53.594;9.938;2022-08-01T07:39:20;18.50;99.90
15452;DHT22;7827;53.594;9.938;2022-08-01T07:41:48;18.50;99.90
15452;DHT22;7827;53.594;9.938;2022-08-01T07:44:33;18.50;99.90
15452;DHT22;7827;53.594;9.938;2022-08-01T07:47:03;18.50;99.90
15452;DHT22;7827;53.594;9.938;2022-08-01T07:49:33;18.50;99.90
15452;DHT22;7827;53.594;9.938;2022-08-01T07:52:06;18.50;99.90
15452;DHT22;7827;53.594;9.938;2022-08-01T07:54:35;18.50;99.90
15452;DHT22;7827;53.594;9.938;2022-08-01T07:57:04;18.60;99.90
15452;DHT22;7827;53.594;9.938;2022-08-01T07:59:32;18.60;99.90
15452;DHT22;7827;53.594;9.938;2022-08-01T08:02:01;18.60;99.90
15452;DHT22;7827;53.594;9.938;2022-08-01T08:04:30;18.80;99.90
15452;DHT22;7827;53.594;9.938;2022-08-01T08:06:59;18.80;99.90
15452;DHT22;7827;53.594;9.938;2022-08-01T08:09:28;18.70;99.90
15452;DHT22;7827;53.594;9.938;2022-08-01T08:12:04;18.70;99.90
15452;DHT22;7827;53.594;9.938;2022-08-01T08:14:33;18.60;99.90
15452;DHT22;7827;53.594;9.938;2022-08-01T08:17:02;18.70;99.90
15452;DHT22;7827;53.594;9.938;2022-08-01T08:19:31;18.80;99.90
15452;DHT22;7827;53.594;9.938;2022-08-01T08:22:06;19.00;99.90
15452;DHT22;7827;53.594;9.938;2022-08-01T08:24:36;19.00;99.90
15452;DHT22;7827;53.594;9.938;2022-08-01T08:27:13;19.10;99.90
15452;DHT22;7827;53.594;9.938;2022-08-01T08:29:42;19.10;99.90
15452;DHT22;7827;53.594;9.938;2022-08-01T08:32:11;19.10;99.90
15452;DHT22;7827;53.594;9.938;2022-08-01T08:34:39;19.30;99.90
15452;DHT22;7827;53.594;9.938;2022-08-01T08:37:09;19.40;99.90
15452;DHT22;7827;53.594;9.938;2022-08-01T08:39:37;19.30;99.90
15452;DHT22;7827;53.594;9.938;2022-08-01T08:42:08;19.40;99.90
15452;DHT22;7827;53.594;9.938;2022-08-01T08:44:38;19.40;99.90
15452;DHT22;7827;53.594;9.938;2022-08-01T08:47:11;19.50;99.90
15452;DHT22;7827;53.594;9.938;2022-08-01T08:49:47;19.50;99.90
15452;DHT22;7827;53.594;9.938;2022-08-01T08:52:20;19.60;99.90
15452;DHT22;7827;53.594;9.938;2022-08-01T08:54:51;19.50;99.90
15452;DHT22;7827;53.594;9.938;2022-08-01T08:57:20;19.70;99.90
15452;DHT22;7827;53.594;9.938;2022-08-01T08:59:49;19.80;99.90
15452;DHT22;7827;53.594;9.938;2022-08-01T09:02:22;19.90;99.90
15452;DHT22;7827;53.594;9.938;2022-08-01T09:04:50;20.00;99.90
15452;DHT22;7827;53.594;9.938;2022-08-01T09:07:20;20.10;99.90
15452;DHT22;7827;53.594;9.938;2022-08-01T09:09:50;20.10;99.90
15452;DHT22;7827;53.594;9.938;2022-08-01T09:12:19;20.10;99.90
15452;DHT22;7827;53.594;9.938;2022-08-01T09:14:48;20.10;99.90
15452;DHT22;7827;53.594;9.938;2022-08-01T09:17:20;20.20;99.90
15452;DHT22;7827;53.594;9.938;2022-08-01T09:19:50;20.20;99.90
15452;DHT22;7827;53.594;9.938;2022-08-01T09:22:23;20.20;99.90
15452;DHT22;7827;53.594;9.938;2022-08-01T09:25:00;20.20;99.90
15452;DHT22;7827;53.594;9.938;2022-08-01T09:27:30;20.30;99.90
15452;DHT22;7827;53.594;9.938;2022-08-01T09:30:08;20.30;99.90
15452;DHT22;7827;53.594;9.938;2022-08-01T09:32:55;20.40;99.90
15452;DHT22;7827;53.594;9.938;2022-08-01T09:35:26;20.50;99.90
15452;DHT22;7827;53.594;9.938;2022-08-01T09:38:15;20.60;99.90
15452;DHT22;7827;53.594;9.938;2022-08-01T09:40:46;20.80;99.90
15452;DHT22;7827;53.594;9.938;2022-08-01T09:43:17;20.90;99.90
15452;DHT22;7827;53.594;9.938;2022-08-01T09:45:47;20.90;99.90
15452;DHT22;7827;53.594;9.938;2022-08-01T09:48:20;21.20;99.90
15452;DHT22;7827;53.594;9.938;2022-08-01T09:50:55;21.30;99.90
15452;DHT22;7827;53.594;9.938;2022-08-01T09:53:45;21.30;99.90
15452;DHT22;7827;53.594;9.938;2022-08-01T09:56:20;21.30;99.90
15452;DHT22;7827;53.594;9.938;2022-08-01T09:58:50;21.20;99.90
15452;DHT22;7827;53.594;9.938;2022-08-01T10:01:26;21.30;99.90
15452;DHT22;7827;53.594;9.938;2022-08-01T10:04:08;21.30;99.90
15452;DHT22;7827;53.594;9.938;2022-08-01T10:06:39;21.20;99.90
15452;DHT22;7827;53.594;9.938;2022-08-01T10:09:12;21.20;99.90
15452;DHT22;7827;53.594;9.938;2022-08-01T10:11:42;21.10;99.90
15452;DHT22;7827;53.594;9.938;2022-08-01T10:14:11;21.10;99.90
15452;DHT22;7827;53.594;9.938;2022-08-01T10:16:45;21.20;99.90
15452;DHT22;7827;53.594;9.938;2022-08-01T10:19:21;21.20;99.90
15452;DHT22;7827;53.594;9.938;2022-08-01T10:21:56;21.30;99.90
15452;DHT22;7827;53.594;9.938;2022-08-01T10:24:29;21.30;99.90
15452;DHT22;7827;53.594;9.938;2022-08-01T10:27:02;21.30;99.90
15452;DHT22;7827;53.594;9.938;2022-08-01T10:29:45;21.30;99.90
15452;DHT22;7827;53.594;9.938;2022-08-01T10:32:35;21.60;99.90
15452;DHT22;7827;53.594;9.938;2022-08-01T10:35:06;21.70;99.90
15452;DHT22;7827;53.594;9.938;2022-08-01T10:37:41;21.70;99.90
15452;DHT22;7827;53.594;9.938;2022-08-01T10:40:19;21.80;99.90
15452;DHT22;7827;53.594;9.938;2022-08-01T10:42:57;21.80;99.90
15452;DHT22;7827;53.594;9.938;2022-08-01T10:45:26;21.50;99.90
15452;DHT22;7827;53.594;9.938;2022-08-01T10:48:00;21.60;99.90
15452;DHT22;7827;53.594;9.938;2022-08-01T10:50:34;21.40;99.90
15452;DHT22;7827;53.594;9.938;2022-08-01T10:53:17;21.60;99.90
15452;DHT22;7827;53.594;9.938;2022-08-01T10:56:00;21.70;99.90
15452;DHT22;7827;53.594;9.938;2022-08-01T10:58:31;21.70;99.90
15452;DHT22;7827;53.594;9.938;2022-08-01T11:01:22;21.70;99.90
15452;DHT22;7827;53.594;9.938;2022-08-01T11:04:03;21.70;99.90
15452;DHT22;7827;53.594;9.938;2022-08-01T11:06:52;21.90;99.90
15452;DHT22;7827;53.594;9.938;2022-08-01T11:09:38;21.90;99.90
15452;DHT22;7827;53.594;9.938;2022-08-01T11:12:12;22.00;99.90
15452;DHT22;7827;53.594;9.938;2022-08-01T11:15:18;22.20;99.90
15452;DHT22;7827;53.594;9.938;2022-08-01T11:17:57;22.10;99.90
15452;DHT22;7827;53.594;9.938;2022-08-01T11:20:28;22.20;99.90
15452;DHT22;7827;53.594;9.938;2022-08-01T11:23:26;22.00;99.90
15452;DHT22;7827;53.594;9.938;2022-08-01T11:26:20;22.00;99.90
15452;DHT22;7827;53.594;9.938;2022-08-01T11:29:14;22.00;99.90
15452;DHT22;7827;53.594;9.938;2022-08-01T11:31:49;21.90;99.90
15452;DHT22;7827;53.594;9.938;2022-08-01T11:34:19;21.90;99.90
15452;DHT22;7827;53.594;9.938;2022-08-01T11:36:48;21.80;99.90
15452;DHT22;7827;53.594;9.938;2022-08-01T11:39:26;22.00;99.90
15452;DHT22;7827;53.594;9.938;2022-08-01T11:42:17;22.10;99.90
15452;DHT22;7827;53.594;9.938;2022-08-01T11:44:51;22.20;99.90
15452;DHT22;7827;53.594;9.938;2022-08-01T11:47:45;22.20;99.90
15452;DHT22;7827;53.594;9.938;2022-08-01T11:50:39;22.30;99.90
15452;DHT22;7827;53.594;9.938;2022-08-01T11:53:09;22.20;99.90
15452;DHT22;7827;53.594;9.938;2022-08-01T11:55:45;22.10;99.90
15452;DHT22;7827;53.594;9.938;2022-08-01T11:58:21;22.20;99.90
15452;DHT22;7827;53.594;9.938;2022-08-01T12:00:58;22.20;99.90
15452;DHT22;7827;53.594;9.938;2022-08-01T12:03:28;22.10;99.90
15452;DHT22;7827;53.594;9.938;2022-08-01T12:06:00;22.30;99.90
15452;DHT22;7827;53.594;9.938;2022-08-01T12:08:30;22.30;99.90
15452;DHT22;7827;53.594;9.938;2022-08-01T12:11:02;22.30;99.90
15452;DHT22;7827;53.594;9.938;2022-08-01T12:13:39;22.40;99.90
15452;DHT22;7827;53.594;9.938;2022-08-01T12:16:11;22.30;99.90
15452;DHT22;7827;53.594;9.938;2022-08-01T12:18:40;22.20;99.90
15452;DHT22;7827;53.594;9.938;2022-08-01T12:21:09;22.30;99.90
15452;DHT22;7827;53.594;9.938;2022-08-01T12:23:38;22.30;99.90
15452;DHT22;7827;53.594;9.938;2022-08-01T12:26:06;22.40;99.90
15452;DHT22;7827;53.594;9.938;2022-08-01T12:28:54;22.50;99.90
15452;DHT22;7827;53.594;9.938;2022-08-01T12:31:32;22.30;99.90
15452;DHT22;7827;53.594;9.938;2022-08-01T12:34:26;22.30;99.90
15452;DHT22;7827;53.594;9.938;2022-08-01T12:36:58;22.20;99.90
15452;DHT22;7827;53.594;9.938;2022-08-01T12:39:32;22.10;99.90
15452;DHT22;7827;53.594;9.938;2022-08-01T12:42:01;22.20;99.90
15452;DHT22;7827;53.594;9.938;2022-08-01T12:44:33;22.10;99.90
15452;DHT22;7827;53.594;9.938;2022-08-01T12:47:05;22.00;99.90
15452;DHT22;7827;53.594;9.938;2022-08-01T12:49:36;21.90;99.90
15452;DHT22;7827;53.594;9.938;2022-08-01T12:52:05;21.90;99.90
15452;DHT22;7827;53.594;9.938;2022-08-01T12:55:05;21.70;99.90
15452;DHT22;7827;53.594;9.938;2022-08-01T12:57:38;21.70;99.90
15452;DHT22;7827;53.594;9.938;2022-08-01T13:00:14;21.70;99.90
15452;DHT22;7827;53.594;9.938;2022-08-01T13:02:48;21.80;99.90
15452;DHT22;7827;53.594;9.938;2022-08-01T13:05:18;21.90;99.90
15452;DHT22;7827;53.594;9.938;2022-08-01T13:07:48;21.90;99.90
15452;DHT22;7827;53.594;9.938;2022-08-01T13:10:26;21.80;99.90
15452;DHT22;7827;53.594;9.938;2022-08-01T13:12:57;21.80;99.90
15452;DHT22;7827;53.594;9.938;2022-08-01T13:15:29;21.70;99.90
15452;DHT22;7827;53.594;9.938;2022-08-01T13:18:21;21.80;99.90
15452;DHT22;7827;53.594;9.938;2022-08-01T13:21:07;21.80;99.90
15452;DHT22;7827;53.594;9.938;2022-08-01T13:23:37;21.80;99.90
15452;DHT22;7827;53.594;9.938;2022-08-01T13:26:40;21.70;99.90
15452;DHT22;7827;53.594;9.938;2022-08-01T13:29:10;21.90;99.90
15452;DHT22;7827;53.594;9.938;2022-08-01T13:31:40;21.90;99.90
15452;DHT22;7827;53.594;9.938;2022-08-01T13:34:11;21.70;99.90
15452;DHT22;7827;53.594;9.938;2022-08-01T13:36:40;21.70;99.90
15452;DHT22;7827;53.594;9.938;2022-08-01T13:39:15;21.60;99.90
15452;DHT22;7827;53.594;9.938;2022-08-01T13:42:01;21.60;99.90
15452;DHT22;7827;53.594;9.938;2022-08-01T13:44:30;21.70;99.90
15452;DHT22;7827;53.594;9.938;2022-08-01T13:46:59;21.70;99.90
15452;DHT22;7827;53.594;9.938;2022-08-01T13:49:43;21.70;99.90
15452;DHT22;7827;53.594;9.938;2022-08-01T13:52:12;21.70;99.90
15452;DHT22;7827;53.594;9.938;2022-08-01T13:54:40;21.50;99.90
15452;DHT22;7827;53.594;9.938;2022-08-01T13:57:09;21.50;99.90
15452;DHT22;7827;53.594;9.938;2022-08-01T13:59:37;21.40;99.90
15452;DHT22;7827;53.594;9.938;2022-08-01T14:02:06;21.50;99.90
15452;DHT22;7827;53.594;9.938;2022-08-01T14:04:35;21.60;99.90
15452;DHT22;7827;53.594;9.938;2022-08-01T14:07:05;21.70;99.90
15452;DHT22;7827;53.594;9.938;2022-08-01T14:09:40;21.70;99.90
15452;DHT22;7827;53.594;9.938;2022-08-01T14:12:29;21.60;99.90
15452;DHT22;7827;53.594;9.938;2022-08-01T14:14:59;21.40;99.90
15452;DHT22;7827;53.594;9.938;2022-08-01T14:17:27;21.40;99.90
15452;DHT22;7827;53.594;9.938;2022-08-01T14:19:55;21.30;99.90
15452;DHT22;7827;53.594;9.938;2022-08-01T14:22:27;21.30;99.90
15452;DHT22;7827;53.594;9.938;2022-08-01T14:24:55;21.40;99.90
15452;DHT22;7827;53.594;9.938;2022-08-01T14:27:29;21.20;99.90
15452;DHT22;7827;53.594;9.938;2022-08-01T14:29:57;21.10;99.90
15452;DHT22;7827;53.594;9.938;2022-08-01T14:32:30;21.20;99.90
15452;DHT22;7827;53.594;9.938;2022-08-01T14:35:00;21.40;99.90
15452;DHT22;7827;53.594;9.938;2022-08-01T14:37:30;21.40;99.90
15452;DHT22;7827;53.594;9.938;2022-08-01T14:40:06;21.40;99.90
15452;DHT22;7827;53.594;9.938;2022-08-01T14:42:38;21.40;99.90
15452;DHT22;7827;53.594;9.938;2022-08-01T14:45:07;21.30;99.90
15452;DHT22;7827;53.594;9.938;2022-08-01T14:47:37;21.20;99.90
15452;DHT22;7827;53.594;9.938;2022-08-01T14:50:07;21.30;99.90
15452;DHT22;7827;53.594;9.938;2022-08-01T14:52:40;21.20;99.90
15452;DHT22;7827;53.594;9.938;2022-08-01T14:55:11;21.20;99.90
15452;DHT22;7827;53.594;9.938;2022-08-01T14:57:40;21.10;99.90
15452;DHT22;7827;53.594;9.938;2022-08-01T15:00:10;21.10;99.90
15452;DHT22;7827;53.594;9.938;2022-08-01T15:02:40;21.10;99.90
15452;DHT22;7827;53.594;9.938;2022-08-01T15:05:10;21.00;99.90
15452;DHT22;7827;53.594;9.938;2022-08-01T15:07:40;21.00;99.90
15452;DHT22;7827;53.594;9.938;2022-08-01T15:10:19;21.10;99.90
15452;DHT22;7827;53.594;9.938;2022-08-01T15:12:48;21.20;99.90
15452;DHT22;7827;53.594;9.938;2022-08-01T15:15:17;21.20;99.90
15452;DHT22;7827;53.594;9.938;2022-08-01T15:17:46;21.10;99.90
15452;DHT22;7827;53.594;9.938;2022-08-01T15:20:14;21.10;99.90
15452;DHT22;7827;53.594;9.938;2022-08-01T15:22:44;21.00;99.90
15452;DHT22;7827;53.594;9.938;2022-08-01T15:25:14;21.00;99.90
15452;DHT22;7827;53.594;9.938;2022-08-01T15:27:43;21.10;99.90
15452;DHT22;7827;53.594;9.938;2022-08-01T15:30:11;21.20;99.90
15452;DHT22;7827;53.594;9.938;2022-08-01T15:32:40;21.00;99.90
15452;DHT22;7827;53.594;9.938;2022-08-01T15:35:08;21.20;99.90
15452;DHT22;7827;53.594;9.938;2022-08-01T15:37:37;21.40;99.90
15452;DHT22;7827;53.594;9.938;2022-08-01T15:40:11;21.50;99.90
15452;DHT22;7827;53.594;9.938;2022-08-01T15:42:39;21.50;99.90
15452;DHT22;7827;53.594;9.938;2022-08-01T15:45:10;21.50;99.90
15452;DHT22;7827;53.594;9.938;2022-08-01T15:48:03;21.50;99.90
15452;DHT22;7827;53.594;9.938;2022-08-01T15:50:32;21.40;99.90
15452;DHT22;7827;53.594;9.938;2022-08-01T15:53:00;21.30;99.90
15452;DHT22;7827;53.594;9.938;2022-08-01T15:55:30;21.30;99.90
15452;DHT22;7827;53.594;9.938;2022-08-01T15:57:59;21.50;99.90
15452;DHT22;7827;53.594;9.938;2022-08-01T16:00:28;21.30;99.90
15452;DHT22;7827;53.594;9.938;2022-08-01T16:03:05;21.30;99.90
15452;DHT22;7827;53.594;9.938;2022-08-01T16:05:34;21.20;99.90
15452;DHT22;7827;53.594;9.938;2022-08-01T16:08:09;21.40;99.90
15452;DHT22;7827;53.594;9.938;2022-08-01T16:10:39;21.50;99.90
15452;DHT22;7827;53.594;9.938;2022-08-01T16:13:08;21.60;99.90
15452;DHT22;7827;53.594;9.938;2022-08-01T16:15:37;21.70;99.90
15452;DHT22;7827;53.594;9.938;2022-08-01T16:18:07;21.70;99.90
15452;DHT22;7827;53.594;9.938;2022-08-01T16:20:41;21.80;99.90